Time;durP1;ratioP1;P1;durP2;ratioP2;P2;SDS_P1;SDS_P2;PMS_P1;PMS_P2;Temp;Humidity;BMP_temperature;BMP_pressure;BME280_temperature;BME280_humidity;BME280_pressure;Samples;Min_cycle;Max_cycle;Signal;HPM_P1;HPM_P2
2024/02/09 00:01:14;;;;;;;4.43;1.52;;;22.40;55.30;;;;;;6123217;22;87302;-60
2024/02/09 00:03:40;;;;;;;2.33;1.42;;;22.40;55.40;;;;;;6149966;22;87215;-60
2024/02/09 00:06:08;;;;;;;5.53;2.03;;;22.40;55.40;;;;;;6119215;22;89070;-61
2024/02/09 00:08:40;;;;;;;1.98;1.25;;;22.40;55.20;;;;;;6122339;22;88485;-60
2024/02/09 00:11:07;;;;;;;2.13;1.60;;;22.40;55.40;;;;;;6149085;22;88136;-60
2024/02/09 00:13:34;;;;;;;2.22;1.58;;;22.30;55.40;;;;;;6149477;22;87421;-60
2024/02/09 00:16:01;;;;;;;3.75;1.50;;;22.30;55.40;;;;;;6148889;22;87517;-60
2024/02/09 00:18:27;;;;;;;2.92;1.60;;;22.30;55.40;;;;;;6120441;22;88890;-61
2024/02/09 00:20:53;;;;;;;1.88;1.45;;;22.30;55.40;;;;;;6122832;22;87151;-60
2024/02/09 00:23:19;;;;;;;4.03;1.58;;;22.20;55.40;;;;;;6148233;22;89609;-60
2024/02/09 00:25:45;;;;;;;3.45;1.60;;;22.20;55.40;;;;;;6149589;22;87971;-60
2024/02/09 00:28:13;;;;;;;3.45;1.48;;;22.20;55.40;;;;;;6121954;22;88782;-61
2024/02/09 00:30:39;;;;;;;2.13;1.38;;;22.20;55.40;;;;;;6149116;22;87000;-60
2024/02/09 00:33:08;;;;;;;1.88;1.23;;;22.20;55.40;;;;;;6122421;22;87953;-60
2024/02/09 00:35:34;;;;;;;1.52;1.25;;;22.10;55.30;;;;;;6122644;22;91924;-61
2024/02/09 00:38:02;;;;;;;2.78;1.80;;;22.10;55.40;;;;;;6122025;22;88755;-60
2024/02/09 00:40:31;;;;;;;2.92;1.52;;;22.10;55.60;;;;;;6121849;22;87425;-60
2024/02/09 00:42:57;;;;;;;;;;;22.10;55.70;;;;;;6149465;22;87453;-60
2024/02/09 00:45:26;;;;;;;3.08;1.55;;;22.10;55.40;;;;;;6123068;22;88498;-61
2024/02/09 00:47:53;;;;;;;2.43;1.57;;;22.10;55.60;;;;;;6150933;22;88463;-60
2024/02/09 00:50:18;;;;;;;5.60;2.13;;;22.10;55.40;;;;;;6122645;22;87185;-61
2024/02/09 00:52:48;;;;;;;2.83;1.33;;;22.00;55.40;;;;;;6121401;22;87382;-60
2024/02/09 00:55:15;;;;;;;2.42;1.20;;;22.00;55.50;;;;;;6121108;22;88311;-60
2024/02/09 00:57:42;;;;;;;3.40;1.80;;;22.00;55.50;;;;;;6149331;22;87760;-60
2024/02/09 01:00:10;;;;;;;2.45;1.33;;;22.00;55.50;;;;;;6148020;22;88150;-60
2024/02/09 01:02:36;;;;;;;2.55;1.27;;;22.00;55.60;;;;;;6150394;22;87336;-59
2024/02/09 01:05:03;;;;;;;4.25;1.60;;;21.90;55.40;;;;;;6149358;22;87559;-60
2024/02/09 01:07:29;;;;;;;3.38;1.67;;;21.90;55.60;;;;;;6119902;22;87790;-60
2024/02/09 01:09:58;;;;;;;2.25;1.45;;;21.90;55.70;;;;;;6145153;22;87542;-60
2024/02/09 02:46:14;;;;;;;3.00;1.52;;;21.40;56.00;;;;;;6149666;22;87892;-61
2024/02/09 03:05:24;;;;;;;2.22;1.27;;;21.30;55.90;;;;;;6150562;22;87160;-60
2024/02/09 03:07:50;;;;;;;;;;;21.30;55.80;;;;;;6150713;22;87772;-61
2024/02/09 03:10:19;;;;;;;2.83;1.58;;;21.30;55.90;;;;;;6123854;22;87350;-60
2024/02/09 03:12:46;;;;;;;1.70;1.17;;;21.30;55.80;;;;;;6121126;22;87221;-59
2024/02/09 03:15:14;;;;;;;1.75;1.42;;;21.30;56.00;;;;;;6116862;22;89666;-60
2024/02/09 03:17:41;;;;;;;1.73;1.20;;;21.30;55.90;;;;;;6122541;22;89892;-61
2024/02/09 03:20:08;;;;;;;2.58;1.55;;;21.30;55.90;;;;;;6148313;22;86892;-61
2024/02/09 03:22:34;;;;;;;3.58;1.73;;;21.30;56.00;;;;;;6149495;22;87400;-60
2024/02/09 03:25:04;;;;;;;1.88;1.23;;;21.30;55.90;;;;;;6144176;22;88193;-60
2024/02/09 03:27:37;;;;;;;2.33;1.33;;;21.30;56.00;;;;;;6147912;22;87556;-60
2024/02/09 03:30:05;;;;;;;2.78;1.10;;;21.30;55.90;;;;;;6121724;22;87311;-60
2024/02/09 03:32:33;;;;;;;2.53;1.38;;;21.20;56.60;;;;;;6151187;22;86756;-59
2024/02/09 03:34:59;;;;;;;1.77;1.42;;;21.20;56.00;;;;;;6121731;22;89133;-60
2024/02/09 03:37:26;;;;;;;1.38;1.25;;;21.20;56.10;;;;;;6149595;22;89856;-60
2024/02/09 03:39:55;;;;;;;2.30;1.10;;;21.20;56.10;;;;;;6150231;22;88228;-59
2024/02/09 03:42:23;;;;;;;2.05;1.30;;;21.20;56.10;;;;;;6150189;22;87931;-60
2024/02/09 03:44:54;;;;;;;2.35;1.23;;;21.20;56.10;;;;;;6150879;22;88592;-60
2024/02/09 03:47:24;;;;;;;1.48;0.98;;;21.20;56.30;;;;;;6145763;22;87863;-60
2024/02/09 03:49:51;;;;;;;1.63;1.10;;;21.20;56.10;;;;;;6149838;22;87399;-60
2024/02/09 03:52:20;;;;;;;1.95;1.20;;;21.20;56.20;;;;;;6144609;22;87512;-60
2024/02/09 03:54:47;;;;;;;;;;;21.20;56.10;;;;;;6149234;22;88918;-61
2024/02/09 03:57:13;;;;;;;3.60;1.50;;;21.10;56.10;;;;;;6150224;22;87657;-61
2024/02/09 03:59:42;;;;;;;1.60;1.20;;;21.20;56.10;;;;;;6124131;22;87777;-60
2024/02/09 04:02:08;;;;;;;2.80;1.40;;;21.20;56.00;;;;;;6122162;22;87512;-60
2024/02/09 04:04:35;;;;;;;3.67;1.60;;;21.10;56.00;;;;;;6121159;22;90152;-60
2024/02/09 04:07:01;;;;;;;2.00;1.45;;;21.10;56.00;;;;;;6149910;22;88732;-60
2024/02/09 04:09:28;;;;;;;2.90;1.63;;;21.10;56.10;;;;;;6122121;22;87372;-60
2024/02/09 04:11:57;;;;;;;2.35;1.38;;;21.10;56.00;;;;;;6123058;22;87815;-60
2024/02/09 04:14:23;;;;;;;2.92;1.63;;;21.10;56.10;;;;;;6148578;22;87558;-60
2024/02/09 04:16:50;;;;;;;2.50;1.40;;;21.10;56.00;;;;;;6118925;22;87597;-60
2024/02/09 04:19:23;;;;;;;2.05;1.33;;;21.10;56.00;;;;;;6120860;22;87620;-60
2024/02/09 04:21:49;;;;;;;1.42;1.02;;;21.10;56.10;;;;;;6149574;22;86839;-61
2024/02/09 04:24:23;;;;;;;1.52;1.25;;;21.10;56.00;;;;;;6120713;22;88394;-60
2024/02/09 04:26:53;;;;;;;1.77;1.33;;;21.10;56.00;;;;;;6123066;22;88770;-61
2024/02/09 04:29:20;;;;;;;1.50;1.05;;;21.10;56.00;;;;;;6148883;22;88906;-60
2024/02/09 04:31:46;;;;;;;1.00;0.90;;;21.10;56.10;;;;;;6121811;22;87316;-62
2024/02/09 04:34:13;;;;;;;1.75;1.25;;;21.10;56.00;;;;;;6122306;22;87316;-61
2024/02/09 04:36:39;;;;;;;1.15;1.00;;;21.10;56.00;;;;;;6149549;22;87722;-60
2024/02/09 04:39:10;;;;;;;2.00;1.27;;;21.00;56.00;;;;;;6116952;22;87114;-60
2024/02/09 04:41:44;;;;;;;2.20;1.10;;;21.00;56.10;;;;;;6149449;22;87605;-60
2024/02/09 04:44:10;;;;;;;1.70;1.10;;;21.00;56.10;;;;;;6149657;22;88727;-60
2024/02/09 04:46:36;;;;;;;2.20;1.30;;;21.00;56.00;;;;;;6122783;22;88393;-60
2024/02/09 04:49:07;;;;;;;1.90;1.13;;;21.00;56.10;;;;;;6148214;22;87441;-60
2024/02/09 04:51:33;;;;;;;1.38;1.08;;;21.00;56.10;;;;;;6143631;22;86932;-60
2024/02/09 04:54:00;;;;;;;2.30;1.25;;;21.00;56.00;;;;;;6121332;22;89116;-61
2024/02/09 04:56:32;;;;;;;2.88;1.30;;;21.00;55.90;;;;;;6148450;22;93004;-61
2024/02/09 04:59:01;;;;;;;3.28;1.40;;;21.00;55.90;;;;;;6147226;22;87432;-60
2024/02/09 05:01:31;;;;;;;1.77;1.33;;;21.00;56.10;;;;;;6148252;22;87502;-60
2024/02/09 05:04:00;;;;;;;2.35;1.55;;;21.00;56.00;;;;;;6149101;22;88931;-60
2024/02/09 05:06:27;;;;;;;1.50;1.38;;;21.00;56.20;;;;;;6121462;22;88116;-61
2024/02/09 05:08:54;;;;;;;2.08;1.40;;;21.00;56.10;;;;;;6149408;22;87303;-60
2024/02/09 05:11:23;;;;;;;1.77;1.20;;;21.00;56.10;;;;;;6149240;22;86727;-60
2024/02/09 05:13:52;;;;;;;2.22;1.50;;;21.00;56.10;;;;;;6147947;22;88213;-60
2024/02/09 05:16:17;;;;;;;1.70;1.20;;;21.00;56.30;;;;;;6148245;22;88231;-60
2024/02/09 05:18:44;;;;;;;2.40;1.05;;;20.90;56.10;;;;;;6146000;22;88144;-60
2024/02/09 05:21:10;;;;;;;2.60;1.27;;;20.90;56.10;;;;;;6149742;22;87728;-61
2024/02/09 05:23:38;;;;;;;1.58;1.25;;;20.90;56.10;;;;;;6148945;22;87885;-60
2024/02/09 05:26:07;;;;;;;1.25;1.10;;;20.90;56.10;;;;;;6145463;22;88131;-60
2024/02/09 05:28:38;;;;;;;1.30;0.90;;;20.90;56.10;;;;;;6142723;22;87510;-60
2024/02/09 05:31:05;;;;;;;2.65;1.25;;;20.90;55.90;;;;;;6146304;22;87552;-61
2024/02/09 05:33:34;;;;;;;1.27;0.88;;;20.90;56.00;;;;;;6145929;22;88207;-60
2024/02/09 05:36:01;;;;;;;2.65;1.10;;;20.90;55.90;;;;;;6122719;22;87695;-59
2024/02/09 05:38:30;;;;;;;1.77;1.20;;;20.90;55.90;;;;;;6148522;22;87204;-61
2024/02/09 05:40:55;;;;;;;1.92;1.52;;;20.90;56.10;;;;;;6148174;22;87255;-60
2024/02/09 05:43:21;;;;;;;1.60;1.00;;;20.90;56.00;;;;;;6144808;22;88990;-61
2024/02/09 05:45:48;;;;;;;2.25;1.48;;;20.90;55.90;;;;;;6118320;22;88152;-60
2024/02/09 05:48:15;;;;;;;1.38;0.90;;;20.90;56.00;;;;;;6147069;22;87307;-60
2024/02/09 05:50:40;;;;;;;1.23;0.98;;;20.80;55.90;;;;;;6122039;22;88234;-59
2024/02/09 05:53:07;;;;;;;3.65;1.58;;;20.80;55.90;;;;;;6149161;22;88203;-60
2024/02/09 05:55:34;;;;;;;2.00;0.93;;;20.80;55.90;;;;;;6147383;22;88290;-60
2024/02/09 05:58:00;;;;;;;2.08;1.40;;;20.80;55.90;;;;;;6119181;22;87716;-60
2024/02/09 06:00:26;;;;;;;1.40;1.27;;;20.80;56.00;;;;;;6118535;22;86794;-60
2024/02/09 06:02:53;;;;;;;1.35;1.00;;;20.80;55.90;;;;;;6149069;22;87277;-61
2024/02/09 06:05:19;;;;;;;1.77;1.02;;;20.80;56.20;;;;;;6146728;22;87871;-60
2024/02/09 06:07:45;;;;;;;1.30;1.20;;;20.80;55.90;;;;;;6150055;22;88115;-57
2024/02/09 06:10:11;;;;;;;1.70;1.27;;;20.80;56.00;;;;;;6149327;22;87383;-61
2024/02/09 06:12:37;;;;;;;1.75;1.05;;;20.80;56.00;;;;;;6118170;22;88832;-61
2024/02/09 06:15:05;;;;;;;2.47;1.30;;;20.80;55.90;;;;;;6148552;22;88343;-60
2024/02/09 06:17:31;;;;;;;1.65;1.20;;;20.80;56.00;;;;;;6124973;22;87323;-60
2024/02/09 06:19:57;;;;;;;2.28;1.23;;;20.80;56.00;;;;;;6148466;22;87338;-61
2024/02/09 06:22:25;;;;;;;1.33;0.88;;;20.80;56.00;;;;;;6150065;22;88153;-60
2024/02/09 06:24:57;;;;;;;1.77;1.20;;;20.80;56.00;;;;;;6121903;22;89113;-61
2024/02/09 06:27:25;;;;;;;2.50;1.20;;;20.80;56.00;;;;;;6144810;22;87420;-60
2024/02/09 06:29:52;;;;;;;1.80;1.30;;;20.80;56.00;;;;;;6123822;22;87670;-60
2024/02/09 06:32:19;;;;;;;1.35;0.95;;;20.70;56.60;;;;;;6149095;22;89135;-60
2024/02/09 06:34:45;;;;;;;1.42;1.10;;;20.70;55.90;;;;;;6133002;22;89162;-62
2024/02/09 06:37:11;;;;;;;1.08;0.82;;;20.70;55.80;;;;;;6091835;22;87361;-60
2024/02/09 06:39:37;;;;;;;1.40;1.25;;;20.70;55.80;;;;;;6147226;22;87113;-60
2024/02/09 06:42:03;;;;;;;1.73;1.10;;;20.70;55.90;;;;;;6121089;22;88394;-61
2024/02/09 06:44:30;;;;;;;1.90;1.30;;;20.70;56.00;;;;;;6122657;22;90526;-61
2024/02/09 06:46:56;;;;;;;1.85;1.25;;;20.70;55.90;;;;;;6121920;22;86913;-60
2024/02/09 06:49:27;;;;;;;0.85;0.80;;;20.70;56.00;;;;;;6122848;22;87098;-61
2024/02/09 06:51:54;;;;;;;1.38;1.02;;;20.70;55.80;;;;;;6149431;22;88121;-61
2024/02/09 06:54:22;;;;;;;1.27;1.10;;;20.70;55.90;;;;;;6122772;22;88399;-59
2024/02/09 06:56:48;;;;;;;1.75;1.08;;;20.70;56.00;;;;;;6123234;22;88091;-61
2024/02/09 06:59:14;;;;;;;1.15;0.82;;;20.70;55.80;;;;;;6149162;22;87232;-60
2024/02/09 07:01:41;;;;;;;1.27;1.00;;;20.70;55.80;;;;;;6142050;22;88843;-60
2024/02/09 07:04:08;;;;;;;1.17;1.08;;;20.70;55.90;;;;;;6112380;22;89037;-60
2024/02/09 07:06:35;;;;;;;2.13;1.10;;;20.70;56.50;;;;;;6122638;22;87293;-60
2024/02/09 07:09:01;;;;;;;1.15;0.95;;;20.70;56.10;;;;;;6149710;22;87149;-60
2024/02/09 07:11:28;;;;;;;1.15;1.00;;;20.70;55.90;;;;;;6123989;22;89204;-61
2024/02/09 07:13:54;;;;;;;1.77;1.30;;;20.70;55.90;;;;;;6122881;22;88814;-60
2024/02/09 07:16:20;;;;;;;1.63;1.10;;;20.70;56.00;;;;;;6146420;22;87534;-60
2024/02/09 07:18:47;;;;;;;1.52;1.10;;;20.60;55.80;;;;;;6098078;22;87640;-60
2024/02/09 07:21:16;;;;;;;2.38;1.05;;;20.60;55.60;;;;;;6118092;22;89126;-61
2024/02/09 07:23:49;;;;;;;1.88;1.35;;;20.60;55.70;;;;;;6149620;22;89630;-59
2024/02/09 07:26:15;;;;;;;1.60;1.10;;;20.60;55.80;;;;;;6118402;22;88012;-60
2024/02/09 07:28:41;;;;;;;1.63;1.20;;;20.60;55.80;;;;;;6122809;22;88009;-60
2024/02/09 07:31:08;;;;;;;0.95;0.75;;;20.60;55.30;;;;;;6148800;22;88126;-58
2024/02/09 07:33:34;;;;;;;1.35;1.13;;;20.60;55.30;;;;;;6148906;22;87718;-60
2024/02/09 07:36:00;;;;;;;1.63;0.90;;;20.60;55.10;;;;;;6149848;22;87313;-60
2024/02/09 07:38:26;;;;;;;3.40;1.08;;;20.60;55.90;;;;;;6150417;22;86990;-61
2024/02/09 07:40:52;;;;;;;1.35;0.98;;;20.60;55.30;;;;;;6149460;22;87592;-61
2024/02/09 07:43:18;;;;;;;1.55;1.00;;;20.60;55.40;;;;;;6118355;22;89405;-61
2024/02/09 07:45:43;;;;;;;2.40;0.90;;;20.60;55.40;;;;;;6114177;22;88363;-61
2024/02/09 07:48:09;;;;;;;1.33;0.90;;;20.60;55.30;;;;;;6150121;22;87144;-61
2024/02/09 07:50:40;;;;;;;3.22;1.60;;;20.60;55.60;;;;;;6123438;22;89813;-60
2024/02/09 07:53:06;;;;;;;2.08;1.50;;;20.60;55.50;;;;;;6146937;22;87866;-61
2024/02/09 07:55:32;;;;;;;2.15;1.65;;;20.70;56.20;;;;;;6149667;22;87130;-62
2024/02/09 07:57:58;;;;;;;2.33;1.48;;;20.80;56.50;;;;;;6149206;22;87838;-61
2024/02/09 08:00:24;;;;;;;3.22;1.52;;;20.90;56.30;;;;;;6147709;22;88374;-61
2024/02/09 08:02:49;;;;;;;3.05;2.47;;;21.00;56.20;;;;;;6150752;22;87205;-60
2024/02/09 08:05:18;;;;;;;3.63;2.55;;;21.10;56.00;;;;;;6122202;22;87480;-60
2024/02/09 08:07:45;;;;;;;6.82;2.53;;;21.20;56.20;;;;;;6148852;22;87388;-61
2024/02/09 08:10:13;;;;;;;5.63;2.42;;;21.30;56.90;;;;;;6146469;22;89179;-59
2024/02/09 08:12:42;;;;;;;4.43;2.70;;;21.30;56.10;;;;;;6143731;22;88507;-60
2024/02/09 08:15:11;;;;;;;4.28;2.70;;;21.40;56.10;;;;;;6121302;22;88362;-60
2024/02/09 08:17:48;;;;;;;3.58;2.50;;;21.50;56.20;;;;;;6122144;22;87386;-60
2024/02/09 08:20:14;;;;;;;6.47;3.33;;;21.50;56.00;;;;;;6148494;22;88114;-61
2024/02/09 08:22:44;;;;;;;3.47;2.47;;;21.60;56.00;;;;;;6146325;22;87384;-59
2024/02/09 08:25:10;;;;;;;2.97;2.30;;;21.60;55.90;;;;;;6121143;22;87137;-61
2024/02/09 08:27:36;;;;;;;5.00;2.30;;;21.60;55.70;;;;;;6097599;22;89572;-61
2024/02/09 08:30:04;;;;;;;3.70;2.10;;;21.70;55.90;;;;;;6145364;22;88202;-60
2024/02/09 08:32:30;;;;;;;2.67;2.38;;;21.70;55.50;;;;;;6149980;22;87088;-60
2024/02/09 08:34:56;;;;;;;2.72;2.30;;;21.70;55.70;;;;;;6093458;22;88459;-61
2024/02/09 08:37:24;;;;;;;4.00;2.40;;;21.70;55.60;;;;;;6121227;22;87535;-61
2024/02/09 08:39:50;;;;;;;4.50;3.00;;;21.80;55.60;;;;;;6148005;22;87903;-61
2024/02/09 08:42:17;;;;;;;2.95;1.63;;;21.80;55.70;;;;;;6120825;22;88477;-61
2024/02/09 08:44:43;;;;;;;4.65;2.10;;;21.80;55.50;;;;;;6096113;22;87762;-60
2024/02/09 08:47:13;;;;;;;3.40;2.28;;;21.80;55.50;;;;;;6147820;22;87147;-60
2024/02/09 08:49:39;;;;;;;3.15;2.13;;;21.90;55.40;;;;;;6120318;22;87992;-60
2024/02/09 08:52:05;;;;;;;3.75;2.65;;;21.90;55.40;;;;;;6148128;22;88183;-60
2024/02/09 08:54:32;;;;;;;4.57;2.08;;;21.90;55.40;;;;;;6149103;22;88774;-60
2024/02/09 08:57:00;;;;;;;3.65;2.03;;;21.90;55.40;;;;;;6149744;22;87174;-61
2024/02/09 08:59:26;;;;;;;2.33;1.63;;;21.90;55.30;;;;;;6145807;22;93515;-60
2024/02/09 09:01:52;;;;;;;4.05;1.98;;;21.90;54.10;;;;;;6148200;22;88174;-61
2024/02/09 09:04:18;;;;;;;4.10;1.70;;;21.90;53.50;;;;;;6147663;22;87443;-61
2024/02/09 09:06:45;;;;;;;10.57;2.55;;;21.90;53.60;;;;;;6120889;22;88083;-61
2024/02/09 09:09:14;;;;;;;6.13;2.13;;;21.90;53.50;;;;;;6122143;22;89200;-62
2024/02/09 09:11:41;;;;;;;6.13;1.92;;;21.90;53.60;;;;;;6149648;22;88218;-62
2024/02/09 09:14:11;;;;;;;3.63;1.83;;;21.90;53.50;;;;;;6149656;22;87429;-62
2024/02/09 09:16:38;;;;;;;3.30;1.65;;;22.00;53.90;;;;;;6150812;22;87014;-63
2024/02/09 09:19:06;;;;;;;15.38;3.33;;;22.00;53.80;;;;;;6147742;22;87989;-61
2024/02/09 09:21:32;;;;;;;19.75;5.47;;;22.00;53.70;;;;;;6142740;22;88001;-61
2024/02/09 09:24:01;;;;;;;40.30;10.15;;;22.00;53.60;;;;;;6147730;22;88044;-61
2024/02/09 09:26:30;;;;;;;50.13;9.38;;;22.00;53.60;;;;;;6119800;22;90977;-61
2024/02/09 09:28:56;;;;;;;56.75;11.68;;;22.00;53.60;;;;;;6147081;22;88611;-62
2024/02/09 09:31:22;;;;;;;48.83;11.40;;;22.10;54.00;;;;;;6147797;22;87551;-61
2024/02/09 09:33:49;;;;;;;37.28;10.73;;;22.10;54.30;;;;;;6148806;22;87677;-59
2024/02/09 09:36:15;;;;;;;51.85;11.48;;;22.00;54.40;;;;;;6120962;22;87416;-61
2024/02/09 09:38:42;;;;;;;55.10;12.00;;;22.10;54.40;;;;;;6148757;22;88047;-60
2024/02/09 09:41:10;;;;;;;50.38;11.40;;;22.10;54.50;;;;;;6148383;22;88296;-61
2024/02/09 09:43:37;;;;;;;44.30;10.88;;;22.10;54.50;;;;;;6147720;22;87234;-61
2024/02/09 09:46:05;;;;;;;43.78;12.45;;;22.10;54.40;;;;;;6148141;22;87627;-61
2024/02/09 09:48:33;;;;;;;45.00;11.20;;;22.10;54.40;;;;;;6143879;22;88996;-60
2024/02/09 09:51:01;;;;;;;47.03;11.32;;;22.20;54.40;;;;;;6148079;22;88366;-61
2024/02/09 09:53:38;;;;;;;48.65;11.95;;;22.20;54.30;;;;;;6117966;22;87137;-61
2024/02/09 09:56:07;;;;;;;40.20;10.82;;;22.20;54.20;;;;;;6146326;22;86979;-60
2024/02/09 09:58:37;;;;;;;40.80;11.88;;;22.20;54.30;;;;;;6119317;22;88436;-60
2024/02/09 10:01:08;;;;;;;36.95;9.73;;;22.20;54.20;;;;;;6116438;22;87578;-60
2024/02/09 10:03:37;;;;;;;41.05;10.23;;;22.20;54.20;;;;;;6146736;22;87271;-61
2024/02/09 10:06:03;;;;;;;44.50;12.00;;;22.20;54.30;;;;;;6142003;22;86646;-60
2024/02/09 10:08:31;;;;;;;38.72;10.02;;;22.30;54.30;;;;;;6147332;22;88311;-62
2024/02/09 10:10:57;;;;;;;41.10;11.38;;;22.30;54.00;;;;;;6119600;22;88869;-62
2024/02/09 10:13:26;;;;;;;34.20;9.45;;;22.20;54.20;;;;;;6119997;22;88872;-60
2024/02/09 10:15:52;;;;;;;32.22;8.93;;;22.30;54.10;;;;;;6148710;22;87588;-61
2024/02/09 10:18:19;;;;;;;35.13;9.45;;;22.30;54.10;;;;;;6115607;22;88270;-60
2024/02/09 10:20:48;;;;;;;40.88;9.90;;;22.30;54.20;;;;;;6148456;22;87595;-61
2024/02/09 10:23:19;;;;;;;35.15;9.80;;;22.30;54.10;;;;;;6147224;22;88158;-61
2024/02/09 10:25:45;;;;;;;31.88;10.10;;;22.40;54.20;;;;;;6120660;22;87151;-61
2024/02/09 10:28:11;;;;;;;38.03;9.30;;;22.40;54.30;;;;;;6146572;22;88597;-63
2024/02/09 10:30:37;;;;;;;26.73;7.78;;;22.30;54.00;;;;;;6116317;22;90051;-61
2024/02/09 10:33:05;;;;;;;31.10;8.20;;;22.40;53.90;;;;;;6116737;22;87797;-59
2024/02/09 10:35:30;;;;;;;29.60;9.18;;;22.40;54.10;;;;;;6149521;22;86917;-60
2024/02/09 10:37:59;;;;;;;26.90;9.60;;;22.40;54.00;;;;;;6118438;22;89753;-61
2024/02/09 10:40:26;;;;;;;28.30;8.77;;;22.40;54.10;;;;;;6141788;22;88302;-61
2024/02/09 10:42:53;;;;;;;24.80;7.90;;;22.40;54.30;;;;;;6146535;22;87227;-61
2024/02/09 10:45:20;;;;;;;31.00;8.27;;;22.40;54.30;;;;;;6121660;22;90282;-60
2024/02/09 10:47:53;;;;;;;25.35;8.02;;;22.40;54.40;;;;;;6121874;22;91293;-61
2024/02/09 10:50:21;;;;;;;25.08;8.02;;;22.40;54.40;;;;;;6147894;22;87719;-61
2024/02/09 10:52:52;;;;;;;25.25;7.68;;;22.50;54.60;;;;;;6150436;22;87655;-61
2024/02/09 10:55:22;;;;;;;23.15;7.32;;;22.40;54.70;;;;;;6149745;22;86825;-60
2024/02/09 10:57:51;;;;;;;32.05;7.90;;;22.50;55.30;;;;;;6122439;22;89260;-61
2024/02/09 11:00:17;;;;;;;29.02;8.30;;;22.50;55.10;;;;;;6122392;22;88221;-61
2024/02/09 11:02:43;;;;;;;24.38;7.07;;;22.50;55.50;;;;;;6122405;22;88273;-62
2024/02/09 11:05:14;;;;;;;25.50;7.07;;;22.50;55.70;;;;;;6143278;22;87505;-61
2024/02/09 11:07:49;;;;;;;22.35;7.53;;;22.60;55.60;;;;;;6147542;22;87514;-62
2024/02/09 11:10:18;;;;;;;21.27;7.43;;;22.60;55.70;;;;;;6121414;22;88680;-60
2024/02/09 11:12:55;;;;;;;20.92;6.43;;;22.60;55.90;;;;;;6121672;22;87531;-62
2024/02/09 11:15:20;;;;;;;22.77;7.60;;;22.60;55.90;;;;;;6143842;22;89239;-62
2024/02/09 11:17:47;;;;;;;24.38;7.25;;;22.60;55.90;;;;;;6121826;22;89359;-60
2024/02/09 11:20:15;;;;;;;20.25;6.00;;;22.60;56.10;;;;;;6149884;22;88300;-62
2024/02/09 11:22:47;;;;;;;23.92;6.93;;;22.60;55.90;;;;;;6148386;22;86906;-61
2024/02/09 11:25:22;;;;;;;20.58;6.47;;;22.60;56.20;;;;;;6144166;22;87085;-60
2024/02/09 11:27:51;;;;;;;18.90;6.28;;;22.60;56.40;;;;;;6146935;22;89000;-61
2024/02/09 11:30:21;;;;;;;20.33;6.30;;;22.60;56.50;;;;;;6113011;22;88285;-61
2024/02/09 11:32:48;;;;;;;19.13;6.32;;;22.60;56.60;;;;;;6122431;22;87293;-61
2024/02/09 11:35:18;;;;;;;21.92;7.38;;;22.60;56.60;;;;;;6122045;22;87079;-61
2024/02/09 11:37:47;;;;;;;17.85;6.97;;;22.60;56.50;;;;;;6147042;22;88507;-60
2024/02/09 11:40:16;;;;;;;21.90;7.35;;;22.60;56.30;;;;;;6145870;22;87265;-62
2024/02/09 11:42:43;;;;;;;19.20;6.82;;;22.60;56.20;;;;;;6148400;22;86883;-61
2024/02/09 11:45:09;;;;;;;18.13;6.28;;;22.70;56.30;;;;;;6118954;22;87387;-61
2024/02/09 11:47:40;;;;;;;18.25;6.05;;;22.70;56.30;;;;;;6149615;22;88609;-61
2024/02/09 11:50:21;;;;;;;14.13;5.32;;;22.60;56.20;;;;;;6115523;22;88346;-62
2024/02/09 11:52:53;;;;;;;20.48;6.57;;;22.60;56.30;;;;;;6146179;22;88055;-62
2024/02/09 11:55:19;;;;;;;20.05;6.85;;;22.70;56.40;;;;;;6115192;22;88068;-61
2024/02/09 11:57:45;;;;;;;18.33;5.97;;;22.70;56.20;;;;;;6146159;22;87562;-61
2024/02/09 12:00:13;;;;;;;19.25;6.75;;;22.70;56.00;;;;;;6120016;22;87647;-61
2024/02/09 12:02:44;;;;;;;16.83;5.95;;;22.70;56.00;;;;;;6120402;22;87533;-61
2024/02/09 12:05:11;;;;;;;16.05;5.85;;;22.70;56.20;;;;;;6093182;22;86997;-61
2024/02/09 12:07:37;;;;;;;17.50;6.28;;;22.70;56.00;;;;;;6147723;22;87520;-62
2024/02/09 12:10:12;;;;;;;20.05;6.80;;;22.70;56.30;;;;;;6146259;22;87771;-61
2024/02/09 12:12:38;;;;;;;17.60;5.90;;;22.70;56.30;;;;;;6119808;22;87306;-61
2024/02/09 12:15:06;;;;;;;21.48;6.25;;;22.70;56.20;;;;;;6117418;22;88211;-60
2024/02/09 12:17:32;;;;;;;15.30;5.68;;;22.80;56.50;;;;;;6120762;22;90871;-62
2024/02/09 12:20:09;;;;;;;14.75;5.18;;;22.70;56.30;;;;;;6144271;22;88634;-61
2024/02/09 12:22:36;;;;;;;14.35;5.43;;;22.80;56.30;;;;;;6118386;22;87633;-61
2024/02/09 12:25:05;;;;;;;14.73;5.03;;;22.80;56.30;;;;;;6093922;22;87823;-63
2024/02/09 12:27:32;;;;;;;15.90;5.60;;;22.80;56.30;;;;;;6120038;22;87716;-61
2024/02/09 12:29:58;;;;;;;17.13;6.00;;;22.80;56.50;;;;;;6120636;22;88584;-61
2024/02/09 12:32:26;;;;;;;15.95;5.63;;;22.80;56.60;;;;;;6120213;22;87403;-61
2024/02/09 12:35:10;;;;;;;17.55;6.10;;;22.80;56.70;;;;;;6146607;22;87114;-62
2024/02/09 12:37:36;;;;;;;15.32;6.03;;;22.80;56.50;;;;;;6146344;22;88725;-61
2024/02/09 12:40:04;;;;;;;12.60;5.07;;;22.80;56.60;;;;;;6148582;22;87407;-61
2024/02/09 12:42:31;;;;;;;15.73;5.25;;;22.80;57.20;;;;;;6120515;22;88663;-61
2024/02/09 12:44:58;;;;;;;14.50;6.22;;;22.80;55.80;;;;;;6149063;22;88047;-62
2024/02/09 12:47:24;;;;;;;18.85;5.65;;;22.80;55.40;;;;;;6148824;22;87612;-62
2024/02/09 12:49:52;;;;;;;17.00;5.53;;;22.80;55.60;;;;;;6121882;22;87817;-61
2024/02/09 12:52:19;;;;;;;17.48;5.80;;;22.80;55.70;;;;;;6143903;22;86977;-61
2024/02/09 12:54:46;;;;;;;15.73;5.78;;;22.80;55.50;;;;;;6120560;22;87614;-61
2024/02/09 12:57:12;;;;;;;14.45;5.38;;;22.80;55.70;;;;;;6119961;22;88746;-62
2024/02/09 12:59:40;;;;;;;16.42;5.18;;;22.80;55.70;;;;;;6147379;22;87614;-62
2024/02/09 13:02:07;;;;;;;11.13;4.47;;;22.80;55.60;;;;;;6120256;22;87625;-62
2024/02/09 13:04:37;;;;;;;14.43;5.05;;;22.90;55.60;;;;;;6147626;22;87029;-61
2024/02/09 13:07:06;;;;;;;10.90;4.40;;;22.80;55.40;;;;;;6143285;22;88844;-62
2024/02/09 13:09:33;;;;;;;19.40;4.97;;;22.80;55.20;;;;;;6148759;22;88831;-62
2024/02/09 13:11:59;;;;;;;11.82;4.80;;;22.80;55.30;;;;;;6148412;22;87125;-62
2024/02/09 13:14:25;;;;;;;10.82;4.50;;;22.90;55.20;;;;;;6148041;22;87310;-61
2024/02/09 13:16:51;;;;;;;11.23;4.45;;;22.90;55.40;;;;;;6120554;22;88328;-62
2024/02/09 13:19:18;;;;;;;13.88;5.13;;;22.90;55.90;;;;;;6119563;22;88223;-61
2024/02/09 13:21:45;;;;;;;14.45;4.90;;;22.90;56.00;;;;;;6146275;22;87388;-60
2024/02/09 13:24:12;;;;;;;13.32;4.63;;;22.90;56.40;;;;;;6143718;22;86531;-62
2024/02/09 13:26:39;;;;;;;11.35;4.35;;;22.90;56.90;;;;;;6143725;22;88492;-65
2024/02/09 13:29:05;;;;;;;13.80;4.03;;;22.90;56.70;;;;;;6117666;22;88798;-64
2024/02/09 13:31:34;;;;;;;10.23;4.22;;;22.90;56.70;;;;;;6146201;22;88231;-63
2024/02/09 13:34:00;;;;;;;11.48;4.68;;;22.90;56.90;;;;;;6147790;22;87617;-63
2024/02/09 13:36:25;;;;;;;11.90;3.55;;;22.90;56.60;;;;;;6144712;22;88093;-65
2024/02/09 13:38:52;;;;;;;8.85;4.07;;;22.90;56.50;;;;;;6149057;22;87663;-61
2024/02/09 13:41:19;;;;;;;8.32;3.78;;;22.90;56.30;;;;;;6095074;22;86953;-61
2024/02/09 13:43:44;;;;;;;9.20;3.58;;;22.90;56.20;;;;;;6144943;22;86953;-66
2024/02/09 13:46:12;;;;;;;8.65;2.95;;;22.90;56.00;;;;;;6118476;22;89217;-63
2024/02/09 13:48:38;;;;;;;10.50;3.70;;;22.90;55.90;;;;;;6147016;22;87627;-66
2024/02/09 13:51:07;;;;;;;8.85;3.47;;;22.90;56.10;;;;;;6116584;22;87598;-67
2024/02/09 13:53:32;;;;;;;8.95;3.80;;;22.90;56.10;;;;;;6147613;22;87704;-64
2024/02/09 13:55:59;;;;;;;8.73;3.10;;;23.00;56.20;;;;;;6119760;22;89854;-61
2024/02/09 13:58:28;;;;;;;8.10;3.40;;;23.00;56.20;;;;;;6121083;22;89068;-61
2024/02/09 14:00:53;;;;;;;5.60;2.60;;;23.00;56.30;;;;;;6120998;22;87161;-60
2024/02/09 14:03:20;;;;;;;8.48;3.38;;;23.00;56.30;;;;;;6120585;22;89049;-61
2024/02/09 14:05:46;;;;;;;7.00;2.80;;;23.00;56.30;;;;;;6147629;22;88776;-62
2024/02/09 14:08:11;;;;;;;9.25;3.70;;;23.00;55.90;;;;;;6145566;22;87141;-61
2024/02/09 14:10:40;;;;;;;11.90;3.80;;;23.00;55.90;;;;;;6149705;22;87389;-60
2024/02/09 14:13:06;;;;;;;8.05;2.97;;;23.00;56.00;;;;;;6122342;22;88419;-60
2024/02/09 14:15:33;;;;;;;8.98;3.13;;;23.00;55.70;;;;;;6148998;22;88047;-61
2024/02/09 14:17:59;;;;;;;18.23;4.88;;;23.00;55.30;;;;;;6149617;22;87710;-61
2024/02/09 14:20:27;;;;;;;17.45;6.45;;;23.00;55.20;;;;;;6119345;22;88480;-60
2024/02/09 14:22:53;;;;;;;19.20;5.55;;;23.00;54.40;;;;;;6146327;22;87311;-60
2024/02/09 14:25:19;;;;;;;17.88;4.88;;;23.00;53.70;;;;;;6148064;22;87881;-60
2024/02/09 14:27:46;;;;;;;17.80;5.20;;;23.00;53.50;;;;;;6119057;22;88695;-61
2024/02/09 14:30:12;;;;;;;17.30;5.15;;;23.00;53.30;;;;;;6146815;22;87197;-61
2024/02/09 14:32:38;;;;;;;15.00;4.80;;;23.00;52.90;;;;;;6122893;22;87835;-61
2024/02/09 14:35:05;;;;;;;17.98;5.70;;;23.00;52.80;;;;;;6142963;22;87995;-61